Terminal Aerodrome Forecast
Issued by NWS Austin/San Antonio, TX

Home | Current Version | Previous Version | Text Only | Print | Product List | Glossary On
Versions: 1 2 3 4 5 6 7 8 9 10 11 12 13 14 15 16 17 18 19 20 21
819
FTUS44 KEWX 310031 AAA
TAFDRT
TAF AMD
KDRT 310031Z 3101/3124 07010KT P6SM -RA BKN040 OVC070
     FM310200 09004KT P6SM SCT030 BKN070
     FM311000 VRB03KT P6SM BKN025
     FM311600 09005KT P6SM SCT030 BKN070=

USA.gov is the U.S. government's official web portal to all federal, state and local government web resources and services.